sensor_id;sensor_type;location;lat;lon;timestamp;pressure;altitude;pressure_sealevel;temperature;humidity
75247;BME280;63844;50.042;19.224;2023-06-10T00:01:32;98689.14;;;16.35;87.45
75247;BME280;63844;50.042;19.224;2023-06-10T00:04:00;98683.91;;;16.32;88.04
75247;BME280;63844;50.042;19.224;2023-06-10T00:06:26;98685.67;;;16.30;88.57
75247;BME280;63844;50.042;19.224;2023-06-10T00:08:54;98685.80;;;16.31;88.00
75247;BME280;63844;50.042;19.224;2023-06-10T00:11:21;98684.40;;;16.31;89.22
75247;BME280;63844;50.042;19.224;2023-06-10T00:13:48;98686.55;;;16.29;89.65
75247;BME280;63844;50.042;19.224;2023-06-10T00:16:14;98693.33;;;16.30;87.98
75247;BME280;63844;50.042;19.224;2023-06-10T00:18:40;98691.59;;;16.26;87.74
75247;BME280;63844;50.042;19.224;2023-06-10T00:21:08;98690.77;;;16.29;87.22
75247;BME280;63844;50.042;19.224;2023-06-10T00:23:34;98698.79;;;16.28;88.30
75247;BME280;63844;50.042;19.224;2023-06-10T00:26:04;98697.98;;;16.29;87.97
75247;BME280;63844;50.042;19.224;2023-06-10T00:28:31;98703.15;;;16.29;87.33
75247;BME280;63844;50.042;19.224;2023-06-10T00:30:57;98703.25;;;16.26;87.13
75247;BME280;63844;50.042;19.224;2023-06-10T00:33:24;98703.54;;;16.21;87.11
75247;BME280;63844;50.042;19.224;2023-06-10T00:35:50;98698.97;;;16.22;88.29
75247;BME280;63844;50.042;19.224;2023-06-10T00:38:17;98700.56;;;16.28;88.48
75247;BME280;63844;50.042;19.224;2023-06-10T00:40:43;98697.76;;;16.29;88.35
75247;BME280;63844;50.042;19.224;2023-06-10T00:43:10;98695.25;;;16.24;87.54
75247;BME280;63844;50.042;19.224;2023-06-10T00:45:36;98700.55;;;16.22;87.36
75247;BME280;63844;50.042;19.224;2023-06-10T00:48:03;98700.20;;;16.24;87.99
75247;BME280;63844;50.042;19.224;2023-06-10T00:50:30;98695.15;;;16.21;87.84
75247;BME280;63844;50.042;19.224;2023-06-10T00:52:58;98699.68;;;16.20;88.55
75247;BME280;63844;50.042;19.224;2023-06-10T00:55:25;98705.48;;;16.19;87.92
75247;BME280;63844;50.042;19.224;2023-06-10T00:57:53;98710.56;;;16.21;87.61
75247;BME280;63844;50.042;19.224;2023-06-10T01:00:20;98716.62;;;16.21;87.93
75247;BME280;63844;50.042;19.224;2023-06-10T01:02:47;98716.66;;;16.24;89.49
75247;BME280;63844;50.042;19.224;2023-06-10T01:05:14;98713.62;;;16.26;89.77
75247;BME280;63844;50.042;19.224;2023-06-10T01:08:19;98711.03;;;16.25;89.46
75247;BME280;63844;50.042;19.224;2023-06-10T01:10:57;98712.73;;;16.22;88.98
75247;BME280;63844;50.042;19.224;2023-06-10T01:13:26;98710.81;;;16.23;88.21
75247;BME280;63844;50.042;19.224;2023-06-10T01:15:56;98717.87;;;16.23;88.16
75247;BME280;63844;50.042;19.224;2023-06-10T01:18:22;98717.41;;;16.22;88.73
75247;BME280;63844;50.042;19.224;2023-06-10T01:20:49;98718.63;;;16.22;88.02
75247;BME280;63844;50.042;19.224;2023-06-10T01:23:16;98716.90;;;16.21;88.96
75247;BME280;63844;50.042;19.224;2023-06-10T01:26:03;98718.86;;;16.20;89.14
75247;BME280;63844;50.042;19.224;2023-06-10T01:28:40;98721.20;;;16.19;90.03
75247;BME280;63844;50.042;19.224;2023-06-10T01:31:17;98724.27;;;16.19;90.87
75247;BME280;63844;50.042;19.224;2023-06-10T01:33:51;98721.81;;;16.21;89.50
75247;BME280;63844;50.042;19.224;2023-06-10T01:36:19;98725.89;;;16.22;89.96
75247;BME280;63844;50.042;19.224;2023-06-10T01:38:47;98726.41;;;16.25;89.11
75247;BME280;63844;50.042;19.224;2023-06-10T01:41:17;98730.63;;;16.25;89.44
75247;BME280;63844;50.042;19.224;2023-06-10T01:43:44;98732.42;;;16.27;89.98
75247;BME280;63844;50.042;19.224;2023-06-10T01:46:11;98733.61;;;16.26;89.93
75247;BME280;63844;50.042;19.224;2023-06-10T01:48:38;98729.09;;;16.23;91.32
75247;BME280;63844;50.042;19.224;2023-06-10T01:51:04;98731.70;;;16.23;91.03
75247;BME280;63844;50.042;19.224;2023-06-10T01:53:31;98730.71;;;16.23;89.89
75247;BME280;63844;50.042;19.224;2023-06-10T01:55:57;98726.02;;;16.19;88.63
75247;BME280;63844;50.042;19.224;2023-06-10T01:58:24;98729.34;;;16.18;89.30
75247;BME280;63844;50.042;19.224;2023-06-10T02:00:51;98728.63;;;16.20;88.95
75247;BME280;63844;50.042;19.224;2023-06-10T02:03:17;98731.25;;;16.19;88.62
75247;BME280;63844;50.042;19.224;2023-06-10T02:05:44;98727.36;;;16.18;89.09
75247;BME280;63844;50.042;19.224;2023-06-10T02:08:11;98729.08;;;16.17;89.55
75247;BME280;63844;50.042;19.224;2023-06-10T02:10:37;98728.19;;;16.15;89.03
75247;BME280;63844;50.042;19.224;2023-06-10T02:13:04;98730.98;;;16.09;90.10
75247;BME280;63844;50.042;19.224;2023-06-10T02:15:31;98734.74;;;16.06;89.23
75247;BME280;63844;50.042;19.224;2023-06-10T02:17:58;98733.56;;;16.07;89.29
75247;BME280;63844;50.042;19.224;2023-06-10T02:20:25;98734.02;;;16.04;89.30
75247;BME280;63844;50.042;19.224;2023-06-10T02:22:52;98738.71;;;16.04;89.95
75247;BME280;63844;50.042;19.224;2023-06-10T02:25:18;98734.18;;;16.05;90.76
75247;BME280;63844;50.042;19.224;2023-06-10T02:27:45;98730.86;;;16.06;89.20
75247;BME280;63844;50.042;19.224;2023-06-10T02:30:12;98732.13;;;16.06;89.13
75247;BME280;63844;50.042;19.224;2023-06-10T02:32:39;98730.58;;;16.05;90.98
75247;BME280;63844;50.042;19.224;2023-06-10T02:35:05;98728.21;;;16.09;91.16
75247;BME280;63844;50.042;19.224;2023-06-10T02:37:32;98725.85;;;16.11;91.23
75247;BME280;63844;50.042;19.224;2023-06-10T02:39:58;98726.55;;;16.13;90.66
75247;BME280;63844;50.042;19.224;2023-06-10T02:42:25;98726.12;;;16.16;90.52
75247;BME280;63844;50.042;19.224;2023-06-10T02:44:51;98721.39;;;16.15;91.34
75247;BME280;63844;50.042;19.224;2023-06-10T02:47:18;98726.96;;;16.17;90.95
75247;BME280;63844;50.042;19.224;2023-06-10T02:49:44;98725.67;;;16.15;89.35
75247;BME280;63844;50.042;19.224;2023-06-10T02:52:11;98726.79;;;16.15;88.94
75247;BME280;63844;50.042;19.224;2023-06-10T02:54:37;98726.81;;;16.12;90.47
75247;BME280;63844;50.042;19.224;2023-06-10T02:57:04;98726.88;;;16.10;89.98
75247;BME280;63844;50.042;19.224;2023-06-10T02:59:32;98726.23;;;16.11;90.05
75247;BME280;63844;50.042;19.224;2023-06-10T03:01:58;98725.91;;;16.11;90.65
75247;BME280;63844;50.042;19.224;2023-06-10T03:04:27;98729.56;;;16.06;92.41
75247;BME280;63844;50.042;19.224;2023-06-10T03:06:55;98733.93;;;16.05;91.05
75247;BME280;63844;50.042;19.224;2023-06-10T03:09:21;98733.65;;;16.08;90.24
75247;BME280;63844;50.042;19.224;2023-06-10T03:11:48;98735.52;;;16.11;90.33
75247;BME280;63844;50.042;19.224;2023-06-10T03:14:14;98735.27;;;16.12;90.26
75247;BME280;63844;50.042;19.224;2023-06-10T03:16:41;98738.34;;;16.13;91.07
75247;BME280;63844;50.042;19.224;2023-06-10T03:19:08;98740.54;;;16.17;90.38
75247;BME280;63844;50.042;19.224;2023-06-10T03:21:35;98746.21;;;16.17;89.66
75247;BME280;63844;50.042;19.224;2023-06-10T03:24:04;98750.96;;;16.14;90.28
75247;BME280;63844;50.042;19.224;2023-06-10T03:26:30;98752.86;;;16.15;90.98
75247;BME280;63844;50.042;19.224;2023-06-10T03:28:57;98758.14;;;16.16;90.06
75247;BME280;63844;50.042;19.224;2023-06-10T03:31:23;98756.35;;;16.16;89.92
75247;BME280;63844;50.042;19.224;2023-06-10T03:33:51;98758.80;;;16.16;89.55
75247;BME280;63844;50.042;19.224;2023-06-10T03:36:17;98760.95;;;16.18;89.72
75247;BME280;63844;50.042;19.224;2023-06-10T03:38:43;98760.91;;;16.20;91.13
75247;BME280;63844;50.042;19.224;2023-06-10T03:41:10;98762.30;;;16.19;92.08
75247;BME280;63844;50.042;19.224;2023-06-10T03:43:37;98763.06;;;16.22;90.38
75247;BME280;63844;50.042;19.224;2023-06-10T03:46:05;98765.52;;;16.24;91.04
75247;BME280;63844;50.042;19.224;2023-06-10T03:48:31;98766.21;;;16.31;90.78
75247;BME280;63844;50.042;19.224;2023-06-10T03:50:57;98766.25;;;16.38;90.80
75247;BME280;63844;50.042;19.224;2023-06-10T03:53:24;98766.73;;;16.41;91.52
75247;BME280;63844;50.042;19.224;2023-06-10T03:55:51;98766.97;;;16.44;91.38
75247;BME280;63844;50.042;19.224;2023-06-10T03:58:17;98768.05;;;16.48;91.76
75247;BME280;63844;50.042;19.224;2023-06-10T04:00:44;98773.53;;;16.52;91.84
75247;BME280;63844;50.042;19.224;2023-06-10T04:03:11;98768.01;;;16.54;91.91
75247;BME280;63844;50.042;19.224;2023-06-10T04:05:41;98771.52;;;16.56;91.07
75247;BME280;63844;50.042;19.224;2023-06-10T04:08:08;98768.12;;;16.58;90.50
75247;BME280;63844;50.042;19.224;2023-06-10T04:10:34;98769.95;;;16.61;90.43
75247;BME280;63844;50.042;19.224;2023-06-10T04:13:01;98770.55;;;16.63;90.41
75247;BME280;63844;50.042;19.224;2023-06-10T04:15:28;98772.09;;;16.63;91.01
75247;BME280;63844;50.042;19.224;2023-06-10T04:17:55;98775.38;;;16.66;90.02
75247;BME280;63844;50.042;19.224;2023-06-10T04:20:21;98780.59;;;16.60;90.52
75247;BME280;63844;50.042;19.224;2023-06-10T04:22:48;98781.98;;;16.59;90.30
75247;BME280;63844;50.042;19.224;2023-06-10T04:25:14;98782.62;;;16.63;90.63
75247;BME280;63844;50.042;19.224;2023-06-10T04:27:41;98782.52;;;16.66;90.85
75247;BME280;63844;50.042;19.224;2023-06-10T04:30:07;98781.77;;;16.68;90.81
75247;BME280;63844;50.042;19.224;2023-06-10T04:32:34;98780.79;;;16.71;91.14
75247;BME280;63844;50.042;19.224;2023-06-10T04:35:00;98782.94;;;16.77;90.72
75247;BME280;63844;50.042;19.224;2023-06-10T04:37:27;98782.84;;;16.78;90.65
75247;BME280;63844;50.042;19.224;2023-06-10T04:39:55;98776.08;;;16.84;90.92
75247;BME280;63844;50.042;19.224;2023-06-10T04:42:21;98777.30;;;16.88;89.91
75247;BME280;63844;50.042;19.224;2023-06-10T04:44:49;98781.27;;;16.91;90.19
75247;BME280;63844;50.042;19.224;2023-06-10T04:47:15;98781.49;;;16.91;90.23
75247;BME280;63844;50.042;19.224;2023-06-10T04:49:43;98780.09;;;16.94;90.14
75247;BME280;63844;50.042;19.224;2023-06-10T04:52:09;98780.74;;;17.00;89.95
75247;BME280;63844;50.042;19.224;2023-06-10T04:54:36;98781.97;;;17.06;90.27
75247;BME280;63844;50.042;19.224;2023-06-10T04:57:03;98783.37;;;17.10;89.71
75247;BME280;63844;50.042;19.224;2023-06-10T04:59:29;98786.08;;;17.17;89.66
75247;BME280;63844;50.042;19.224;2023-06-10T05:01:56;98788.69;;;17.22;89.54
75247;BME280;63844;50.042;19.224;2023-06-10T05:04:23;98791.16;;;17.24;89.26
75247;BME280;63844;50.042;19.224;2023-06-10T05:06:49;98790.00;;;17.28;89.03
75247;BME280;63844;50.042;19.224;2023-06-10T05:09:16;98788.70;;;17.27;89.42
75247;BME280;63844;50.042;19.224;2023-06-10T05:11:42;98785.85;;;17.35;89.20
75247;BME280;63844;50.042;19.224;2023-06-10T05:14:09;98786.09;;;17.38;88.82
75247;BME280;63844;50.042;19.224;2023-06-10T05:16:35;98785.27;;;17.40;89.13
75247;BME280;63844;50.042;19.224;2023-06-10T05:19:02;98785.80;;;17.44;88.85
75247;BME280;63844;50.042;19.224;2023-06-10T05:21:28;98788.35;;;17.51;88.90
75247;BME280;63844;50.042;19.224;2023-06-10T05:23:55;98792.95;;;17.61;88.42
75247;BME280;63844;50.042;19.224;2023-06-10T05:26:21;98792.62;;;17.64;88.33
75247;BME280;63844;50.042;19.224;2023-06-10T05:28:48;98797.64;;;17.75;88.47
75247;BME280;63844;50.042;19.224;2023-06-10T05:31:14;98795.36;;;17.82;88.06
75247;BME280;63844;50.042;19.224;2023-06-10T05:33:41;98799.10;;;17.87;87.82
75247;BME280;63844;50.042;19.224;2023-06-10T05:36:08;98796.98;;;17.98;87.77
75247;BME280;63844;50.042;19.224;2023-06-10T05:38:34;98795.48;;;18.09;87.58
75247;BME280;63844;50.042;19.224;2023-06-10T05:41:01;98790.30;;;18.20;87.27
75247;BME280;63844;50.042;19.224;2023-06-10T05:43:27;98792.77;;;18.29;87.05
75247;BME280;63844;50.042;19.224;2023-06-10T05:45:54;98793.14;;;18.43;86.50
75247;BME280;63844;50.042;19.224;2023-06-10T05:48:20;98793.86;;;18.57;86.01
75247;BME280;63844;50.042;19.224;2023-06-10T05:50:47;98799.75;;;18.68;85.92
75247;BME280;63844;50.042;19.224;2023-06-10T05:53:15;98805.49;;;18.82;85.34
75247;BME280;63844;50.042;19.224;2023-06-10T05:55:45;98807.95;;;18.88;84.56
75247;BME280;63844;50.042;19.224;2023-06-10T05:58:13;98807.73;;;18.90;83.42
75247;BME280;63844;50.042;19.224;2023-06-10T06:00:40;98804.42;;;18.87;82.43
75247;BME280;63844;50.042;19.224;2023-06-10T06:03:07;98802.77;;;18.86;82.30
75247;BME280;63844;50.042;19.224;2023-06-10T06:05:36;98804.26;;;18.89;82.44
75247;BME280;63844;50.042;19.224;2023-06-10T06:08:04;98805.52;;;18.97;83.20
75247;BME280;63844;50.042;19.224;2023-06-10T06:10:31;98808.54;;;18.98;81.88
75247;BME280;63844;50.042;19.224;2023-06-10T06:12:58;98809.71;;;19.05;81.86
75247;BME280;63844;50.042;19.224;2023-06-10T06:15:25;98808.16;;;19.06;81.80
75247;BME280;63844;50.042;19.224;2023-06-10T06:17:52;98808.79;;;19.02;81.02
75247;BME280;63844;50.042;19.224;2023-06-10T06:20:19;98812.56;;;19.05;81.62
75247;BME280;63844;50.042;19.224;2023-06-10T06:22:46;98804.05;;;19.04;80.80
75247;BME280;63844;50.042;19.224;2023-06-10T06:25:12;98809.21;;;19.09;80.83
75247;BME280;63844;50.042;19.224;2023-06-10T06:27:39;98811.42;;;19.20;81.27
75247;BME280;63844;50.042;19.224;2023-06-10T06:30:06;98816.13;;;19.20;80.64
75247;BME280;63844;50.042;19.224;2023-06-10T06:32:33;98814.67;;;19.26;80.55
75247;BME280;63844;50.042;19.224;2023-06-10T06:34:59;98814.60;;;19.32;80.33
75247;BME280;63844;50.042;19.224;2023-06-10T06:37:26;98813.19;;;19.39;79.97
75247;BME280;63844;50.042;19.224;2023-06-10T06:39:53;98816.63;;;19.49;79.44
75247;BME280;63844;50.042;19.224;2023-06-10T06:42:20;98821.58;;;19.57;79.09
75247;BME280;63844;50.042;19.224;2023-06-10T06:44:47;98823.10;;;19.62;78.60
75247;BME280;63844;50.042;19.224;2023-06-10T06:47:13;98824.70;;;19.75;78.68
75247;BME280;63844;50.042;19.224;2023-06-10T06:49:40;98826.94;;;19.82;77.11
75247;BME280;63844;50.042;19.224;2023-06-10T06:52:07;98827.61;;;19.96;76.52
75247;BME280;63844;50.042;19.224;2023-06-10T06:54:33;98829.27;;;20.02;76.04
75247;BME280;63844;50.042;19.224;2023-06-10T06:57:00;98832.17;;;20.01;76.32
75247;BME280;63844;50.042;19.224;2023-06-10T06:59:26;98833.02;;;20.01;76.02
75247;BME280;63844;50.042;19.224;2023-06-10T07:01:53;98835.70;;;19.98;75.42
75247;BME280;63844;50.042;19.224;2023-06-10T07:04:20;98835.14;;;20.01;76.29
75247;BME280;63844;50.042;19.224;2023-06-10T07:06:48;98840.29;;;20.02;75.51
75247;BME280;63844;50.042;19.224;2023-06-10T07:09:15;98842.82;;;20.04;75.44
75247;BME280;63844;50.042;19.224;2023-06-10T07:11:41;98847.60;;;20.04;74.81
75247;BME280;63844;50.042;19.224;2023-06-10T07:14:08;98848.68;;;20.16;75.31
75247;BME280;63844;50.042;19.224;2023-06-10T07:16:34;98849.35;;;20.26;74.67
75247;BME280;63844;50.042;19.224;2023-06-10T07:19:00;98844.52;;;20.32;73.73
75247;BME280;63844;50.042;19.224;2023-06-10T07:21:27;98845.79;;;20.35;73.53
75247;BME280;63844;50.042;19.224;2023-06-10T07:23:54;98850.89;;;20.32;73.52
75247;BME280;63844;50.042;19.224;2023-06-10T07:26:24;98853.84;;;20.27;74.16
75247;BME280;63844;50.042;19.224;2023-06-10T07:28:51;98853.35;;;20.12;74.53
75247;BME280;63844;50.042;19.224;2023-06-10T07:31:18;98855.29;;;20.05;75.39
75247;BME280;63844;50.042;19.224;2023-06-10T07:33:46;98850.35;;;20.07;76.01
75247;BME280;63844;50.042;19.224;2023-06-10T07:36:13;98849.36;;;20.09;75.34
75247;BME280;63844;50.042;19.224;2023-06-10T07:38:39;98852.81;;;20.20;74.93
75247;BME280;63844;50.042;19.224;2023-06-10T07:41:09;98853.35;;;20.40;74.22
75247;BME280;63844;50.042;19.224;2023-06-10T07:43:36;98847.02;;;20.62;73.76
75247;BME280;63844;50.042;19.224;2023-06-10T07:46:03;98849.54;;;20.80;72.51
75247;BME280;63844;50.042;19.224;2023-06-10T07:48:29;98851.94;;;20.98;72.01
75247;BME280;63844;50.042;19.224;2023-06-10T07:50:56;98848.37;;;21.13;71.89
75247;BME280;63844;50.042;19.224;2023-06-10T07:53:22;98851.90;;;21.28;71.12
75247;BME280;63844;50.042;19.224;2023-06-10T07:55:49;98848.29;;;21.48;70.66
75247;BME280;63844;50.042;19.224;2023-06-10T07:58:15;98851.81;;;21.63;69.76
75247;BME280;63844;50.042;19.224;2023-06-10T08:00:42;98854.59;;;21.84;70.20
75247;BME280;63844;50.042;19.224;2023-06-10T08:03:08;98855.34;;;22.05;69.05
75247;BME280;63844;50.042;19.224;2023-06-10T08:05:34;98853.36;;;22.16;67.81
75247;BME280;63844;50.042;19.224;2023-06-10T08:08:01;98849.77;;;22.30;66.67
75247;BME280;63844;50.042;19.224;2023-06-10T08:10:27;98855.88;;;22.41;66.19
75247;BME280;63844;50.042;19.224;2023-06-10T08:12:54;98854.83;;;22.50;65.36
75247;BME280;63844;50.042;19.224;2023-06-10T08:15:20;98861.63;;;22.61;65.75
75247;BME280;63844;50.042;19.224;2023-06-10T08:17:47;98862.79;;;22.80;65.63
75247;BME280;63844;50.042;19.224;2023-06-10T08:20:13;98862.04;;;23.00;64.86
75247;BME280;63844;50.042;19.224;2023-06-10T08:22:39;98863.48;;;23.11;64.74
75247;BME280;63844;50.042;19.224;2023-06-10T08:25:07;98863.69;;;23.08;64.36
75247;BME280;63844;50.042;19.224;2023-06-10T08:27:34;98864.96;;;22.85;64.29
75247;BME280;63844;50.042;19.224;2023-06-10T08:30:00;98864.48;;;22.78;65.01
75247;BME280;63844;50.042;19.224;2023-06-10T08:32:27;98868.09;;;22.69;64.99
75247;BME280;63844;50.042;19.224;2023-06-10T08:34:53;98872.26;;;22.58;65.42
75247;BME280;63844;50.042;19.224;2023-06-10T08:37:20;98873.73;;;22.46;65.60
75247;BME280;63844;50.042;19.224;2023-06-10T08:39:46;98875.16;;;22.38;65.67
75247;BME280;63844;50.042;19.224;2023-06-10T08:42:33;98876.78;;;22.49;66.13
75247;BME280;63844;50.042;19.224;2023-06-10T08:45:03;98872.86;;;22.44;64.89
75247;BME280;63844;50.042;19.224;2023-06-10T08:47:30;98870.61;;;22.39;65.19
75247;BME280;63844;50.042;19.224;2023-06-10T08:50:04;98870.09;;;22.25;65.74
75247;BME280;63844;50.042;19.224;2023-06-10T08:52:36;98872.11;;;22.31;65.76
75247;BME280;63844;50.042;19.224;2023-06-10T08:55:09;98869.03;;;22.31;65.55
75247;BME280;63844;50.042;19.224;2023-06-10T08:57:36;98871.08;;;22.29;65.37
75247;BME280;63844;50.042;19.224;2023-06-10T09:00:04;98870.40;;;22.34;64.70
75247;BME280;63844;50.042;19.224;2023-06-10T09:02:32;98867.68;;;22.54;65.35
75247;BME280;63844;50.042;19.224;2023-06-10T09:05:02;98864.82;;;22.72;65.38
75247;BME280;63844;50.042;19.224;2023-06-10T09:07:30;98863.20;;;22.80;64.11
75247;BME280;63844;50.042;19.224;2023-06-10T09:09:58;98864.50;;;22.87;64.57
75247;BME280;63844;50.042;19.224;2023-06-10T09:12:25;98864.27;;;23.01;64.23
75247;BME280;63844;50.042;19.224;2023-06-10T09:14:51;98863.31;;;23.16;64.14
75247;BME280;63844;50.042;19.224;2023-06-10T09:17:18;98863.56;;;23.28;63.31
75247;BME280;63844;50.042;19.224;2023-06-10T09:19:44;98863.48;;;23.39;63.08
75247;BME280;63844;50.042;19.224;2023-06-10T09:22:12;98862.19;;;23.54;62.72
75247;BME280;63844;50.042;19.224;2023-06-10T09:24:39;98858.00;;;23.53;61.66
75247;BME280;63844;50.042;19.224;2023-06-10T09:27:07;98863.39;;;23.44;61.45
75247;BME280;63844;50.042;19.224;2023-06-10T09:29:48;98861.77;;;23.47;61.45
75247;BME280;63844;50.042;19.224;2023-06-10T09:32:18;98856.16;;;23.64;61.55
75247;BME280;63844;50.042;19.224;2023-06-10T09:34:45;98857.45;;;23.82;61.54
75247;BME280;63844;50.042;19.224;2023-06-10T09:37:12;98860.06;;;23.98;61.24
75247;BME280;63844;50.042;19.224;2023-06-10T09:39:40;98857.81;;;24.14;61.53
75247;BME280;63844;50.042;19.224;2023-06-10T09:42:19;98860.00;;;24.12;60.27
75247;BME280;63844;50.042;19.224;2023-06-10T09:44:49;98857.11;;;24.03;60.48
75247;BME280;63844;50.042;19.224;2023-06-10T09:47:20;98856.69;;;23.99;61.19
75247;BME280;63844;50.042;19.224;2023-06-10T09:49:48;98860.64;;;23.95;60.91
75247;BME280;63844;50.042;19.224;2023-06-10T09:52:22;98856.14;;;23.88;60.23
75247;BME280;63844;50.042;19.224;2023-06-10T09:54:54;98853.77;;;23.78;61.03
75247;BME280;63844;50.042;19.224;2023-06-10T09:57:21;98856.86;;;23.68;60.76
75247;BME280;63844;50.042;19.224;2023-06-10T09:59:48;98854.60;;;23.69;61.06
75247;BME280;63844;50.042;19.224;2023-06-10T10:02:19;98854.83;;;23.62;61.11
75247;BME280;63844;50.042;19.224;2023-06-10T10:04:45;98853.59;;;23.45;61.12
75247;BME280;63844;50.042;19.224;2023-06-10T10:07:12;98853.45;;;23.37;61.00
75247;BME280;63844;50.042;19.224;2023-06-10T10:09:40;98853.64;;;23.30;61.09
75247;BME280;63844;50.042;19.224;2023-06-10T10:12:09;98856.31;;;23.20;61.45
75247;BME280;63844;50.042;19.224;2023-06-10T10:14:37;98856.23;;;23.13;61.23
75247;BME280;63844;50.042;19.224;2023-06-10T10:17:09;98858.71;;;23.12;62.05
75247;BME280;63844;50.042;19.224;2023-06-10T10:19:48;98855.51;;;23.20;62.13
75247;BME280;63844;50.042;19.224;2023-06-10T10:22:27;98852.21;;;23.44;61.17
75247;BME280;63844;50.042;19.224;2023-06-10T10:24:57;98846.09;;;23.67;60.97
75247;BME280;63844;50.042;19.224;2023-06-10T10:27:34;98837.30;;;23.79;60.65
75247;BME280;63844;50.042;19.224;2023-06-10T10:30:03;98838.08;;;23.90;59.69
75247;BME280;63844;50.042;19.224;2023-06-10T10:32:52;98837.66;;;23.81;57.98
75247;BME280;63844;50.042;19.224;2023-06-10T10:35:22;98838.73;;;23.75;58.61
75247;BME280;63844;50.042;19.224;2023-06-10T10:37:54;98842.65;;;23.77;58.51
75247;BME280;63844;50.042;19.224;2023-06-10T10:40:22;98842.11;;;23.79;58.12
75247;BME280;63844;50.042;19.224;2023-06-10T10:42:50;98845.06;;;23.79;57.99
75247;BME280;63844;50.042;19.224;2023-06-10T10:45:17;98844.28;;;23.87;58.32
75247;BME280;63844;50.042;19.224;2023-06-10T10:47:52;98842.43;;;23.83;56.97
75247;BME280;63844;50.042;19.224;2023-06-10T10:50:20;98839.76;;;23.69;56.67
75247;BME280;63844;50.042;19.224;2023-06-10T10:52:55;98839.66;;;23.66;57.52
75247;BME280;63844;50.042;19.224;2023-06-10T10:55:23;98838.95;;;23.69;58.00
75247;BME280;63844;50.042;19.224;2023-06-10T10:58:03;98842.09;;;23.53;57.84
75247;BME280;63844;50.042;19.224;2023-06-10T11:00:35;98846.29;;;23.16;60.01
75247;BME280;63844;50.042;19.224;2023-06-10T11:05:42;98835.60;;;22.34;63.50
75247;BME280;63844;50.042;19.224;2023-06-10T11:08:45;98833.85;;;21.95;65.72
75247;BME280;63844;50.042;19.224;2023-06-10T11:11:24;98830.00;;;21.52;67.18
75247;BME280;63844;50.042;19.224;2023-06-10T11:14:12;98831.55;;;21.27;66.95
75247;BME280;63844;50.042;19.224;2023-06-10T11:16:40;98832.91;;;21.13;66.88
75247;BME280;63844;50.042;19.224;2023-06-10T11:19:08;98837.39;;;21.01;67.17
75247;BME280;63844;50.042;19.224;2023-06-10T11:22:01;98838.77;;;20.98;67.93
75247;BME280;63844;50.042;19.224;2023-06-10T11:24:29;98839.83;;;20.92;69.70
75247;BME280;63844;50.042;19.224;2023-06-10T11:27:15;98841.16;;;20.86;70.60
75247;BME280;63844;50.042;19.224;2023-06-10T11:29:58;98839.61;;;20.85;71.12
75247;BME280;63844;50.042;19.224;2023-06-10T11:32:43;98838.58;;;20.78;71.29
75247;BME280;63844;50.042;19.224;2023-06-10T11:35:10;98837.39;;;20.76;71.20
75247;BME280;63844;50.042;19.224;2023-06-10T11:37:37;98840.02;;;20.80;71.45
75247;BME280;63844;50.042;19.224;2023-06-10T11:40:04;98844.83;;;20.89;70.88
75247;BME280;63844;50.042;19.224;2023-06-10T11:42:32;98849.66;;;20.89;70.32
75247;BME280;63844;50.042;19.224;2023-06-10T11:44:59;98846.96;;;20.89;71.25
75247;BME280;63844;50.042;19.224;2023-06-10T11:47:29;98850.22;;;20.99;69.83
75247;BME280;63844;50.042;19.224;2023-06-10T11:49:56;98849.04;;;20.98;67.36
75247;BME280;63844;50.042;19.224;2023-06-10T11:52:27;98850.71;;;21.00;66.64
75247;BME280;63844;50.042;19.224;2023-06-10T11:54:54;98854.40;;;21.01;66.97
75247;BME280;63844;50.042;19.224;2023-06-10T11:57:21;98855.16;;;21.07;66.90
75247;BME280;63844;50.042;19.224;2023-06-10T11:59:48;98851.90;;;21.14;66.05
75247;BME280;63844;50.042;19.224;2023-06-10T12:02:15;98852.86;;;21.24;65.77
75247;BME280;63844;50.042;19.224;2023-06-10T12:04:42;98851.91;;;21.46;66.05
75247;BME280;63844;50.042;19.224;2023-06-10T12:07:17;98845.70;;;21.75;64.78
75247;BME280;63844;50.042;19.224;2023-06-10T12:09:44;98838.98;;;22.15;63.83
75247;BME280;63844;50.042;19.224;2023-06-10T12:12:11;98837.25;;;22.57;64.02
75247;BME280;63844;50.042;19.224;2023-06-10T12:14:55;98834.10;;;22.95;63.96
75247;BME280;63844;50.042;19.224;2023-06-10T12:19:59;98832.85;;;23.43;59.67
75247;BME280;63844;50.042;19.224;2023-06-10T12:22:27;98832.27;;;23.52;59.68
75247;BME280;63844;50.042;19.224;2023-06-10T12:25:03;98836.46;;;23.70;58.62
75247;BME280;63844;50.042;19.224;2023-06-10T12:27:30;98837.17;;;23.96;58.73
75247;BME280;63844;50.042;19.224;2023-06-10T12:29:58;98832.61;;;24.11;57.85
75247;BME280;63844;50.042;19.224;2023-06-10T12:32:45;98838.52;;;24.42;58.28
75247;BME280;63844;50.042;19.224;2023-06-10T12:35:17;98841.27;;;24.74;57.87
75247;BME280;63844;50.042;19.224;2023-06-10T12:38:00;98835.02;;;25.09;57.38
75247;BME280;63844;50.042;19.224;2023-06-10T12:40:31;98834.86;;;25.40;55.71
75247;BME280;63844;50.042;19.224;2023-06-10T12:42:59;98834.91;;;25.49;54.97
75247;BME280;63844;50.042;19.224;2023-06-10T12:45:34;98839.77;;;25.27;55.85
75247;BME280;63844;50.042;19.224;2023-06-10T12:48:05;98842.66;;;25.36;55.19
75247;BME280;63844;50.042;19.224;2023-06-10T12:50:33;98850.31;;;25.60;54.05
75247;BME280;63844;50.042;19.224;2023-06-10T12:52:59;98845.58;;;25.66;52.16
75247;BME280;63844;50.042;19.224;2023-06-10T12:55:26;98841.37;;;25.71;52.05
75247;BME280;63844;50.042;19.224;2023-06-10T12:57:54;98841.17;;;25.77;51.17
75247;BME280;63844;50.042;19.224;2023-06-10T13:00:22;98842.33;;;25.78;52.34
75247;BME280;63844;50.042;19.224;2023-06-10T13:02:52;98841.96;;;25.97;52.11